createdAt,value
2023-05-04T00:01:18.624Z,100356.44
2023-05-04T00:03:47.090Z,100362.06
2023-05-04T00:06:14.888Z,100359.69
2023-05-04T00:08:42.547Z,100362.44
2023-05-04T00:11:11.799Z,100356.06
2023-05-04T00:13:39.094Z,100357.66
2023-05-04T00:16:09.243Z,100352.00
2023-05-04T00:18:38.844Z,100361.28
2023-05-04T00:21:06.630Z,100351.69
2023-05-04T00:23:34.176Z,100349.88
2023-05-04T00:26:01.819Z,100340.50
2023-05-04T00:28:29.776Z,100343.94
2023-05-04T00:30:57.456Z,100347.16
2023-05-04T00:33:25.548Z,100343.25
2023-05-04T00:35:53.717Z,100347.28
2023-05-04T00:38:23.192Z,100347.72
2023-05-04T00:40:51.302Z,100340.75
2023-05-04T00:43:18.584Z,100339.28
2023-05-04T00:45:45.830Z,100345.75
2023-05-04T00:48:14.461Z,100341.31
2023-05-04T00:50:42.200Z,100348.03
2023-05-04T00:53:10.770Z,100335.97
2023-05-04T00:55:40.551Z,100342.09
2023-05-04T00:58:09.448Z,100339.63
2023-05-04T01:00:37.336Z,100344.69
2023-05-04T01:03:05.268Z,100336.88
2023-05-04T01:05:35.999Z,100337.19
2023-05-04T01:08:06.942Z,100342.72
2023-05-04T01:10:56.908Z,100339.28
2023-05-04T01:13:24.156Z,100342.53
2023-05-04T01:15:52.435Z,100337.81
2023-05-04T01:18:19.782Z,100336.50
2023-05-04T01:20:47.960Z,100341.63
2023-05-04T01:23:17.296Z,100340.12
2023-05-04T01:25:50.234Z,100339.38
2023-05-04T01:28:23.756Z,100339.75
2023-05-04T01:30:51.736Z,100336.69
2023-05-04T01:33:19.789Z,100339.47
2023-05-04T01:35:47.052Z,100333.47
2023-05-04T01:38:14.498Z,100338.22
2023-05-04T01:40:42.066Z,100338.97
2023-05-04T01:43:09.580Z,100331.47
2023-05-04T01:45:39.194Z,100337.09
2023-05-04T01:48:06.819Z,100339.75
2023-05-04T01:50:34.704Z,100338.69
2023-05-04T01:53:03.926Z,100334.31
2023-05-04T01:55:34.277Z,100340.50
2023-05-04T01:58:01.707Z,100333.34
2023-05-04T02:00:29.167Z,100337.94
2023-05-04T02:03:00.422Z,100330.50
2023-05-04T02:05:27.904Z,100325.47
2023-05-04T02:07:56.785Z,100328.81
2023-05-04T02:10:25.449Z,100324.78
2023-05-04T02:12:53.108Z,100330.78
2023-05-04T02:15:20.974Z,100332.19
2023-05-04T02:17:49.264Z,100334.47
2023-05-04T02:20:16.596Z,100329.19
2023-05-04T02:22:46.357Z,100323.59
2023-05-04T02:25:14.697Z,100331.69
2023-05-04T02:27:42.464Z,100326.75
2023-05-04T02:30:10.187Z,100330.06
2023-05-04T02:32:39.065Z,100325.28
2023-05-04T02:35:07.637Z,100322.00
2023-05-04T02:37:35.981Z,100324.53
2023-05-04T02:40:04.813Z,100326.44
2023-05-04T02:42:33.969Z,100320.34
2023-05-04T02:45:01.567Z,100336.41
2023-05-04T02:47:29.149Z,100324.00
2023-05-04T02:49:56.652Z,100327.53
2023-05-04T02:52:24.721Z,100320.47
2023-05-04T02:54:53.278Z,100333.50
2023-05-04T02:57:21.113Z,100327.31
2023-05-04T02:59:48.853Z,100330.84
2023-05-04T03:02:17.938Z,100328.59
2023-05-04T03:04:45.406Z,100336.88
2023-05-04T03:07:14.471Z,100334.88
2023-05-04T03:09:44.765Z,100330.84
2023-05-04T03:12:15.251Z,100340.53
2023-05-04T03:14:43.146Z,100339.97
2023-05-04T03:17:10.499Z,100341.69
2023-05-04T03:19:38.611Z,100341.66
2023-05-04T03:22:06.833Z,100342.03
2023-05-04T03:24:35.894Z,100343.88
2023-05-04T03:27:03.723Z,100345.66
2023-05-04T03:29:31.655Z,100342.37
2023-05-04T03:31:59.518Z,100348.94
2023-05-04T03:34:28.919Z,100352.44
2023-05-04T03:36:59.074Z,100350.56
2023-05-04T03:39:27.292Z,100342.22
2023-05-04T03:41:55.133Z,100352.72
2023-05-04T03:44:22.521Z,100348.16
2023-05-04T03:46:51.174Z,100346.78
2023-05-04T03:49:20.008Z,100351.06
2023-05-04T03:51:47.537Z,100359.41
2023-05-04T03:54:17.823Z,100353.81
2023-05-04T03:56:47.177Z,100353.41
2023-05-04T03:59:16.642Z,100356.97
2023-05-04T04:01:44.873Z,100359.41
2023-05-04T04:04:12.834Z,100358.28
2023-05-04T04:06:43.597Z,100365.81
2023-05-04T04:09:18.285Z,100353.16
2023-05-04T04:11:47.434Z,100356.19
2023-05-04T04:14:15.103Z,100357.81
2023-05-04T04:16:44.706Z,100366.28
2023-05-04T04:19:13.218Z,100355.63
2023-05-04T04:21:42.030Z,100357.97
2023-05-04T04:24:15.772Z,100358.66
2023-05-04T04:26:47.859Z,100363.88
2023-05-04T04:29:16.012Z,100360.25
2023-05-04T04:31:45.087Z,100361.16
2023-05-04T04:34:13.138Z,100369.44
2023-05-04T04:36:42.074Z,100367.94
2023-05-04T04:39:12.225Z,100358.69
2023-05-04T04:41:44.914Z,100363.25
2023-05-04T04:44:16.151Z,100366.03
2023-05-04T04:46:46.927Z,100359.19
2023-05-04T04:49:18.032Z,100370.66
2023-05-04T04:51:45.937Z,100366.72
2023-05-04T04:54:13.981Z,100366.16
2023-05-04T04:56:52.090Z,100367.69
2023-05-04T04:59:24.759Z,100374.81
2023-05-04T05:01:53.766Z,100371.25
2023-05-04T05:04:25.495Z,100378.06
2023-05-04T05:06:54.654Z,100372.66
2023-05-04T05:09:23.847Z,100375.13
2023-05-04T05:11:55.845Z,100374.72
2023-05-04T05:14:26.176Z,100365.97
2023-05-04T05:16:54.816Z,100379.13
2023-05-04T05:19:27.061Z,100377.84
2023-05-04T05:21:57.159Z,100381.19
2023-05-04T05:24:27.553Z,100382.84
2023-05-04T05:26:56.050Z,100385.41
2023-05-04T05:29:26.291Z,100383.31
2023-05-04T05:31:54.056Z,100383.47
2023-05-04T05:34:25.662Z,100380.81
2023-05-04T05:36:54.344Z,100383.13
2023-05-04T05:39:23.983Z,100385.78
2023-05-04T05:41:58.991Z,100383.59
2023-05-04T05:44:34.278Z,100382.34
2023-05-04T05:47:05.860Z,100387.69
2023-05-04T05:49:36.887Z,100388.25
2023-05-04T05:52:07.289Z,100373.72
2023-05-04T05:54:46.081Z,100384.84
2023-05-04T05:57:15.578Z,100384.12
2023-05-04T05:59:44.848Z,100384.59
2023-05-04T06:02:15.004Z,100386.59
2023-05-04T06:04:43.609Z,100393.00
2023-05-04T06:07:13.773Z,100393.84
2023-05-04T06:09:42.024Z,100394.75
2023-05-04T06:12:12.327Z,100393.50
2023-05-04T06:14:40.425Z,100388.97
2023-05-04T06:17:10.907Z,100385.56
2023-05-04T06:19:39.662Z,100394.16
2023-05-04T06:22:07.127Z,100387.19
2023-05-04T06:24:39.867Z,100389.81
2023-05-04T06:27:11.672Z,100396.63
2023-05-04T06:29:41.510Z,100404.00
2023-05-04T06:32:10.053Z,100399.56
2023-05-04T06:34:40.286Z,100392.09
2023-05-04T06:37:16.217Z,100398.97
2023-05-04T06:42:19.064Z,100404.09
2023-05-04T06:44:49.194Z,100419.59
2023-05-04T06:47:19.652Z,100411.62
2023-05-04T06:49:48.022Z,100410.00
2023-05-04T06:52:16.998Z,100411.81
2023-05-04T06:54:44.543Z,100409.13
2023-05-04T06:57:12.138Z,100410.78
2023-05-04T06:59:39.666Z,100410.84
2023-05-04T07:02:08.872Z,100411.69
2023-05-04T07:04:37.334Z,100410.06
2023-05-04T07:07:05.892Z,100414.06
2023-05-04T07:09:35.402Z,100413.94
2023-05-04T07:12:04.783Z,100402.66
2023-05-04T07:14:35.097Z,100394.00
2023-05-04T07:17:03.355Z,100400.47
2023-05-04T07:19:33.274Z,100396.13
2023-05-04T07:22:02.658Z,100410.47
2023-05-04T07:24:31.043Z,100396.00
2023-05-04T07:26:59.255Z,100389.16
2023-05-04T07:29:27.491Z,100394.78
2023-05-04T07:32:01.021Z,100395.28
2023-05-04T07:34:44.443Z,100396.16
2023-05-04T07:37:13.820Z,100399.66
2023-05-04T07:39:50.986Z,100396.34
2023-05-04T07:42:23.870Z,100401.94
2023-05-04T07:44:52.219Z,100399.13
2023-05-04T07:47:19.813Z,100397.34
2023-05-04T07:49:49.078Z,100391.53
2023-05-04T07:52:17.094Z,100387.56
2023-05-04T07:54:44.383Z,100391.31
2023-05-04T07:57:13.877Z,100389.09
2023-05-04T07:59:44.056Z,100398.03
2023-05-04T08:02:15.071Z,100392.63
2023-05-04T08:04:47.219Z,100393.56
2023-05-04T08:07:17.312Z,100392.87
2023-05-04T08:09:48.177Z,100391.62
2023-05-04T08:12:18.340Z,100390.47
2023-05-04T08:14:51.676Z,100392.66
2023-05-04T08:17:19.258Z,100393.09
2023-05-04T08:19:48.880Z,100392.63
2023-05-04T08:22:18.043Z,100400.56
2023-05-04T08:24:49.128Z,100395.44
2023-05-04T08:27:17.980Z,100409.22
2023-05-04T08:29:47.773Z,100404.06
2023-05-04T08:32:15.900Z,100411.22
2023-05-04T08:34:44.447Z,100411.81
2023-05-04T08:37:15.039Z,100407.06
2023-05-04T08:39:54.973Z,100412.91
2023-05-04T08:42:35.832Z,100408.72
2023-05-04T08:45:06.087Z,100405.19
2023-05-04T08:50:07.921Z,100400.63
2023-05-04T08:52:37.920Z,100397.50
2023-05-04T08:55:06.892Z,100395.53
2023-05-04T08:57:36.060Z,100398.62
2023-05-04T09:00:05.734Z,100391.66
2023-05-04T09:02:33.525Z,100405.78
2023-05-04T09:05:04.913Z,100395.47
2023-05-04T09:07:33.133Z,100388.97
2023-05-04T09:10:01.851Z,100395.63
2023-05-04T09:12:31.900Z,100395.44
2023-05-04T09:15:07.046Z,100394.13
2023-05-04T09:17:42.080Z,100389.84
2023-05-04T09:20:19.077Z,100381.16
2023-05-04T09:22:46.785Z,100392.25
2023-05-04T09:25:15.404Z,100390.03
2023-05-04T09:27:52.524Z,100385.38
2023-05-04T09:30:23.772Z,100380.69
2023-05-04T09:32:53.959Z,100387.09
2023-05-04T09:35:33.833Z,100387.78
2023-05-04T09:38:02.633Z,100382.19
2023-05-04T09:40:33.312Z,100386.13
2023-05-04T09:43:02.825Z,100380.25
2023-05-04T09:45:41.312Z,100378.75
2023-05-04T09:48:19.198Z,100382.16
2023-05-04T09:50:51.099Z,100376.13
2023-05-04T09:53:21.132Z,100370.38
2023-05-04T09:55:51.698Z,100375.19
2023-05-04T09:58:20.048Z,100370.50
2023-05-04T10:00:50.881Z,100369.19
2023-05-04T10:03:21.977Z,100370.81
2023-05-04T10:05:50.933Z,100360.13
2023-05-04T10:08:19.976Z,100368.38
2023-05-04T10:10:49.053Z,100362.00
2023-05-04T10:13:17.875Z,100363.41
2023-05-04T10:15:52.951Z,100363.19
2023-05-04T10:18:46.199Z,100360.97
2023-05-04T10:21:44.959Z,100361.50
2023-05-04T10:24:16.002Z,100353.50
2023-05-04T10:26:51.699Z,100354.50
2023-05-04T10:29:23.846Z,100356.34
2023-05-04T10:31:55.022Z,100345.66
2023-05-04T10:34:30.497Z,100345.34
2023-05-04T10:36:59.590Z,100340.00
2023-05-04T10:39:29.780Z,100344.56
2023-05-04T10:42:06.186Z,100354.28
2023-05-04T10:44:35.636Z,100337.88
2023-05-04T10:47:05.485Z,100334.75
2023-05-04T10:49:37.224Z,100333.19
2023-05-04T10:52:06.867Z,100333.09
2023-05-04T10:54:37.770Z,100333.09
2023-05-04T10:57:13.894Z,100326.59
2023-05-04T10:59:49.806Z,100320.03
2023-05-04T11:02:22.761Z,100313.56
2023-05-04T11:04:58.175Z,100312.78
2023-05-04T11:07:34.679Z,100312.59
2023-05-04T11:10:06.392Z,100304.16
2023-05-04T11:12:35.906Z,100308.34
2023-05-04T11:15:16.812Z,100303.66
2023-05-04T11:17:47.058Z,100302.56
2023-05-04T11:20:25.661Z,100296.00
2023-05-04T11:22:59.227Z,100292.50
2023-05-04T11:25:30.788Z,100294.91
2023-05-04T11:27:59.941Z,100287.66
2023-05-04T11:30:34.495Z,100287.41
2023-05-04T11:33:05.970Z,100288.00
2023-05-04T11:35:36.091Z,100286.94
2023-05-04T11:38:03.971Z,100284.78
2023-05-04T11:40:32.319Z,100281.00
2023-05-04T11:43:02.891Z,100288.81
2023-05-04T11:45:39.430Z,100281.16
2023-05-04T11:48:08.558Z,100281.34
2023-05-04T11:50:39.208Z,100282.00
2023-05-04T11:53:09.485Z,100285.56
2023-05-04T11:55:39.344Z,100283.97
2023-05-04T11:58:13.335Z,100284.44
2023-05-04T12:00:45.888Z,100282.34
2023-05-04T12:03:18.083Z,100277.09
2023-05-04T12:05:57.290Z,100280.44
2023-05-04T12:08:26.453Z,100278.41
2023-05-04T12:11:16.843Z,100284.37
2023-05-04T12:13:48.081Z,100286.97
2023-05-04T12:16:21.192Z,100275.19
2023-05-04T12:18:48.880Z,100280.19
2023-05-04T12:21:19.580Z,100278.34
2023-05-04T12:23:49.129Z,100267.69
2023-05-04T12:26:19.648Z,100268.09
2023-05-04T12:28:53.488Z,100269.91
2023-05-04T12:31:25.410Z,100264.81
2023-05-04T12:33:54.547Z,100255.88
2023-05-04T12:36:24.636Z,100251.16
2023-05-04T12:38:55.449Z,100244.97
2023-05-04T12:41:23.936Z,100252.88
2023-05-04T12:43:51.630Z,100254.59
2023-05-04T12:46:22.900Z,100245.66
2023-05-04T12:48:57.992Z,100246.06
2023-05-04T12:51:27.890Z,100251.28
2023-05-04T12:54:06.190Z,100239.63
2023-05-04T12:56:36.248Z,100237.09
2023-05-04T12:59:05.379Z,100241.03
2023-05-04T13:04:19.935Z,100240.16
2023-05-04T13:06:53.454Z,100236.75
2023-05-04T13:09:32.201Z,100238.31
2023-05-04T13:12:05.511Z,100228.81
2023-05-04T13:14:39.816Z,100227.88
2023-05-04T13:19:43.396Z,100225.78
2023-05-04T13:27:25.142Z,100210.41
2023-05-04T13:29:54.235Z,100218.97
2023-05-04T13:32:26.654Z,100214.44
2023-05-04T13:34:56.762Z,100205.06
2023-05-04T13:37:25.912Z,100208.47
2023-05-04T13:39:55.923Z,100210.47
2023-05-04T13:45:03.240Z,100205.88
2023-05-04T13:47:33.662Z,100204.22
2023-05-04T13:50:02.549Z,100202.78
2023-05-04T13:52:34.178Z,100200.50
2023-05-04T13:55:03.430Z,100207.03
2023-05-04T13:57:33.357Z,100203.06
2023-05-04T14:00:07.522Z,100200.94
2023-05-04T14:02:48.561Z,100200.22
2023-05-04T14:07:59.015Z,100192.28
2023-05-04T14:10:28.935Z,100197.97
2023-05-04T14:13:02.016Z,100196.25
2023-05-04T14:15:33.946Z,100193.69
2023-05-04T14:18:03.061Z,100200.22
2023-05-04T14:20:31.799Z,100195.84
2023-05-04T14:23:01.506Z,100189.03
2023-05-04T14:25:30.696Z,100186.00
2023-05-04T14:27:59.963Z,100195.12
2023-05-04T14:30:40.185Z,100192.94
2023-05-04T14:33:09.212Z,100179.94
2023-05-04T14:35:42.942Z,100176.91
2023-05-04T14:40:47.101Z,100187.66
2023-05-04T14:43:21.982Z,100187.13
2023-05-04T14:45:51.490Z,100180.06
2023-05-04T14:48:20.003Z,100188.47
2023-05-04T14:50:48.869Z,100187.00
2023-05-04T14:53:18.060Z,100190.84
2023-05-04T14:55:47.892Z,100184.97
2023-05-04T14:58:16.130Z,100177.03
2023-05-04T15:03:22.097Z,100184.16
2023-05-04T15:05:52.170Z,100184.72
2023-05-04T15:08:34.110Z,100187.13
2023-05-04T15:11:03.122Z,100186.75
2023-05-04T15:13:34.025Z,100185.87
2023-05-04T15:16:04.638Z,100178.63
2023-05-04T15:18:35.379Z,100186.00
2023-05-04T15:21:03.627Z,100184.81
2023-05-04T15:23:37.411Z,100182.53
2023-05-04T15:26:09.988Z,100177.78
2023-05-04T15:28:37.712Z,100177.34
2023-05-04T15:31:07.556Z,100177.50
2023-05-04T15:33:45.078Z,100166.69
2023-05-04T15:36:16.243Z,100177.25
2023-05-04T15:38:45.147Z,100176.63
2023-05-04T15:41:18.222Z,100178.41
2023-05-04T15:43:48.235Z,100176.28
2023-05-04T15:46:17.000Z,100182.53
2023-05-04T15:48:47.345Z,100187.22
2023-05-04T15:51:20.986Z,100177.81
2023-05-04T15:53:56.001Z,100178.69
2023-05-04T15:56:26.331Z,100180.13
2023-05-04T15:59:03.973Z,100181.97
2023-05-04T16:01:34.004Z,100173.19
2023-05-04T16:04:02.682Z,100178.09
2023-05-04T16:06:42.045Z,100181.22
2023-05-04T16:09:19.038Z,100176.44
2023-05-04T16:12:05.193Z,100174.47
2023-05-04T16:14:34.326Z,100177.75
2023-05-04T16:17:02.464Z,100166.22
2023-05-04T16:19:31.946Z,100161.94
2023-05-04T16:21:59.850Z,100163.97
2023-05-04T16:24:34.968Z,100164.53
2023-05-04T16:29:39.483Z,100172.34
2023-05-04T16:32:10.969Z,100166.84
2023-05-04T16:34:40.402Z,100176.81
2023-05-04T16:37:10.952Z,100180.84
2023-05-04T16:39:44.225Z,100175.63
2023-05-04T16:42:14.178Z,100178.50
2023-05-04T16:44:47.274Z,100174.31
2023-05-04T16:47:16.659Z,100182.59
2023-05-04T16:52:32.963Z,100188.75
2023-05-04T16:55:05.147Z,100198.97
2023-05-04T16:57:33.115Z,100194.28
2023-05-04T17:00:04.105Z,100191.56
2023-05-04T17:02:42.401Z,100194.19
2023-05-04T17:05:10.970Z,100197.28
2023-05-04T17:07:47.004Z,100203.09
2023-05-04T17:12:56.173Z,100200.75
2023-05-04T17:15:24.212Z,100199.69
2023-05-04T17:17:53.025Z,100206.19
2023-05-04T17:20:21.909Z,100203.59
2023-05-04T17:22:56.130Z,100202.06
2023-05-04T17:25:28.233Z,100200.88
2023-05-04T17:28:05.973Z,100205.94
2023-05-04T17:30:36.026Z,100201.91
2023-05-04T17:33:13.181Z,100212.12
2023-05-04T17:35:45.076Z,100213.34
2023-05-04T17:38:19.272Z,100206.59
2023-05-04T17:43:21.814Z,100224.00
2023-05-04T17:45:56.258Z,100222.56
2023-05-04T17:48:39.442Z,100221.88
2023-05-04T17:51:17.231Z,100226.72
2023-05-04T17:53:51.020Z,100231.38
2023-05-04T17:56:33.295Z,100234.78
2023-05-04T17:59:04.258Z,100238.50
2023-05-04T18:01:32.595Z,100237.06
2023-05-04T18:04:16.965Z,100244.37
2023-05-04T18:06:50.673Z,100248.13
2023-05-04T18:09:27.304Z,100251.75
2023-05-04T18:11:59.211Z,100259.31
2023-05-04T18:14:36.012Z,100254.69
2023-05-04T18:17:04.266Z,100256.66
2023-05-04T18:19:37.438Z,100262.25
2023-05-04T18:22:15.277Z,100263.72
2023-05-04T18:24:52.058Z,100263.97
2023-05-04T18:27:24.227Z,100265.16
2023-05-04T18:29:54.461Z,100267.13
2023-05-04T18:32:32.069Z,100267.22
2023-05-04T18:35:02.862Z,100272.94
2023-05-04T18:37:38.981Z,100279.72
2023-05-04T18:40:17.006Z,100287.03
2023-05-04T18:42:52.494Z,100284.97
2023-05-04T18:45:28.056Z,100293.00
2023-05-04T18:48:08.009Z,100291.56
2023-05-04T18:50:52.672Z,100296.66
2023-05-04T18:53:30.259Z,100299.78
2023-05-04T18:58:43.084Z,100307.19
2023-05-04T19:01:17.011Z,100310.56
2023-05-04T19:03:55.057Z,100313.00
2023-05-04T19:06:28.033Z,100316.41
2023-05-04T19:08:57.344Z,100312.59
2023-05-04T19:11:26.982Z,100325.03
2023-05-04T19:14:02.373Z,100316.03
2023-05-04T19:16:37.147Z,100319.47
2023-05-04T19:19:12.553Z,100321.84
2023-05-04T19:21:45.847Z,100317.34
2023-05-04T19:24:22.216Z,100322.50
2023-05-04T19:27:01.999Z,100327.84
2023-05-04T19:29:30.640Z,100326.78
2023-05-04T19:32:12.048Z,100335.37
2023-05-04T19:34:47.115Z,100339.63
2023-05-04T19:39:58.985Z,100341.78
2023-05-04T19:42:40.899Z,100345.63
2023-05-04T19:45:14.072Z,100339.66
2023-05-04T19:47:42.002Z,100343.50
2023-05-04T19:50:12.068Z,100338.16
2023-05-04T19:52:47.085Z,100337.44
2023-05-04T19:55:22.249Z,100341.94
2023-05-04T19:57:55.942Z,100335.72
2023-05-04T20:00:31.008Z,100342.63
2023-05-04T20:03:02.277Z,100335.25
2023-05-04T20:05:38.411Z,100341.47
2023-05-04T20:08:13.099Z,100340.19
2023-05-04T20:10:42.171Z,100342.88
2023-05-04T20:13:10.853Z,100347.44
2023-05-04T20:15:39.848Z,100341.56
2023-05-04T20:18:10.204Z,100344.69
2023-05-04T20:20:39.969Z,100346.59
2023-05-04T20:23:12.257Z,100348.69
2023-05-04T20:25:43.008Z,100359.13
2023-05-04T20:28:11.701Z,100352.19
2023-05-04T20:30:41.165Z,100348.44
2023-05-04T20:33:08.842Z,100352.41
2023-05-04T20:35:36.654Z,100349.88
2023-05-04T20:38:12.436Z,100349.03
2023-05-04T20:40:50.913Z,100347.56
2023-05-04T20:43:20.049Z,100347.94
2023-05-04T20:45:49.248Z,100350.88
2023-05-04T20:48:18.421Z,100349.00
2023-05-04T20:50:47.302Z,100348.03
2023-05-04T20:53:20.210Z,100344.41
2023-05-04T20:55:50.014Z,100344.81
2023-05-04T20:58:21.069Z,100346.97
2023-05-04T21:01:01.899Z,100347.75
2023-05-04T21:03:29.906Z,100347.47
2023-05-04T21:05:58.425Z,100346.41
2023-05-04T21:08:31.045Z,100347.88
2023-05-04T21:11:02.552Z,100353.00
2023-05-04T21:13:35.137Z,100343.69
2023-05-04T21:16:03.985Z,100350.25
2023-05-04T21:18:43.134Z,100361.78
2023-05-04T21:21:11.800Z,100371.69
2023-05-04T21:23:41.381Z,100372.53
2023-05-04T21:26:10.291Z,100376.72
2023-05-04T21:28:38.865Z,100371.19
2023-05-04T21:31:09.082Z,100372.22
2023-05-04T21:33:37.217Z,100365.66
2023-05-04T21:36:16.287Z,100363.78
2023-05-04T21:38:49.645Z,100360.03
2023-05-04T21:41:18.028Z,100362.63
2023-05-04T21:43:48.026Z,100359.00
2023-05-04T21:46:19.235Z,100365.19
2023-05-04T21:48:47.362Z,100358.31
2023-05-04T21:51:15.393Z,100357.75
2023-05-04T21:53:43.492Z,100363.50
2023-05-04T21:56:11.856Z,100366.56
2023-05-04T21:58:40.960Z,100366.72
2023-05-04T22:01:09.171Z,100369.66
2023-05-04T22:03:37.938Z,100374.12
2023-05-04T22:06:06.589Z,100369.56
2023-05-04T22:08:34.485Z,100369.06
2023-05-04T22:11:02.870Z,100374.53
2023-05-04T22:13:30.645Z,100372.22
2023-05-04T22:15:58.393Z,100383.28
2023-05-04T22:18:26.892Z,100382.56
2023-05-04T22:20:55.129Z,100382.94
2023-05-04T22:23:23.188Z,100384.28
2023-05-04T22:25:51.217Z,100386.37
2023-05-04T22:28:19.076Z,100379.22
2023-05-04T22:30:57.346Z,100382.75
2023-05-04T22:33:25.489Z,100385.53
2023-05-04T22:35:53.486Z,100381.38
2023-05-04T22:38:20.936Z,100385.50
2023-05-04T22:40:50.155Z,100378.72
2023-05-04T22:43:17.850Z,100378.38
2023-05-04T22:45:45.535Z,100371.50
2023-05-04T22:48:16.907Z,100382.19
2023-05-04T22:50:45.190Z,100376.44
2023-05-04T22:53:14.805Z,100375.19
2023-05-04T22:55:43.895Z,100377.22
2023-05-04T22:58:12.106Z,100373.03
2023-05-04T23:00:40.175Z,100373.84
2023-05-04T23:03:11.273Z,100374.31
2023-05-04T23:05:39.199Z,100364.78
2023-05-04T23:08:07.260Z,100369.94
2023-05-04T23:10:35.707Z,100365.19
2023-05-04T23:13:03.485Z,100364.47
2023-05-04T23:15:33.561Z,100370.50
2023-05-04T23:18:02.554Z,100365.47
2023-05-04T23:20:30.029Z,100375.13
2023-05-04T23:22:57.267Z,100361.50
2023-05-04T23:25:26.409Z,100365.59
2023-05-04T23:27:54.799Z,100363.09
2023-05-04T23:30:22.570Z,100365.59
2023-05-04T23:32:50.069Z,100358.91
2023-05-04T23:35:18.026Z,100360.81
2023-05-04T23:37:45.727Z,100362.41
2023-05-04T23:40:13.683Z,100359.28
2023-05-04T23:42:41.217Z,100363.13
2023-05-04T23:45:09.325Z,100345.47
2023-05-04T23:47:36.892Z,100354.28
2023-05-04T23:50:05.182Z,100352.03
2023-05-04T23:52:33.131Z,100356.78
2023-05-04T23:55:00.804Z,100352.59
2023-05-04T23:57:30.053Z,100353.28
2023-05-04T23:59:57.408Z,100361.06
